createdAt,value
2023-05-02T00:02:47.735Z,95728.00
2023-05-02T00:08:16.507Z,95730.00
2023-05-02T00:13:44.853Z,95725.00
2023-05-02T00:19:13.541Z,95730.00
2023-05-02T00:24:43.682Z,95719.00
2023-05-02T00:30:12.342Z,95717.00
2023-05-02T00:35:41.502Z,95716.00
2023-05-02T00:41:09.732Z,95716.00
2023-05-02T00:46:38.136Z,95720.00
2023-05-02T00:52:07.763Z,95721.00
2023-05-02T00:57:35.999Z,95717.00
2023-05-02T01:03:17.989Z,95708.00
2023-05-02T01:09:45.956Z,95717.00
2023-05-02T01:15:19.533Z,95721.00
2023-05-02T01:20:51.464Z,95726.00
2023-05-02T01:26:38.136Z,95720.00
2023-05-02T01:32:07.657Z,95719.00
2023-05-02T01:37:39.595Z,95726.00
2023-05-02T01:43:09.353Z,95728.00
2023-05-02T01:48:37.824Z,95723.00
2023-05-02T01:54:08.873Z,95723.00
2023-05-02T01:59:37.970Z,95721.00
2023-05-02T02:05:07.877Z,95740.00
2023-05-02T02:10:44.739Z,95742.00
2023-05-02T02:16:15.270Z,95742.00
2023-05-02T02:21:44.246Z,95749.00
2023-05-02T02:27:12.436Z,95755.00
2023-05-02T02:32:40.843Z,95740.00
2023-05-02T02:38:27.817Z,95755.00
2023-05-02T02:44:39.501Z,95757.00
2023-05-02T02:50:31.671Z,95751.00
2023-05-02T02:56:07.637Z,95755.00
2023-05-02T03:01:39.269Z,95765.00
2023-05-02T03:07:07.881Z,95767.00
2023-05-02T03:12:36.125Z,95774.00
2023-05-02T03:18:06.112Z,95770.00
2023-05-02T03:23:34.960Z,95774.00
2023-05-02T03:29:03.846Z,95782.00
2023-05-02T03:34:37.845Z,95781.00
2023-05-02T03:40:07.923Z,95779.00
2023-05-02T03:45:36.117Z,95787.00
2023-05-02T03:51:10.180Z,95790.00
2023-05-02T03:56:45.082Z,95792.00
2023-05-02T04:02:25.549Z,95805.00
2023-05-02T04:07:53.885Z,95809.00
2023-05-02T04:13:22.119Z,95813.00
2023-05-02T04:18:51.359Z,95814.00
2023-05-02T04:24:22.249Z,95823.00
2023-05-02T04:29:52.151Z,95827.00
2023-05-02T04:35:21.218Z,95827.00
2023-05-02T04:40:52.367Z,95824.00
2023-05-02T04:46:26.104Z,95850.00
2023-05-02T04:51:54.384Z,95852.00
2023-05-02T04:57:24.048Z,95866.00
2023-05-02T05:02:59.134Z,95867.00
2023-05-02T05:08:28.248Z,95876.00
2023-05-02T05:13:58.443Z,95880.00
2023-05-02T05:19:29.681Z,95890.00
2023-05-02T05:25:00.968Z,95889.00
2023-05-02T05:30:32.271Z,95897.00
2023-05-02T05:36:06.985Z,95910.00
2023-05-02T05:41:38.244Z,95916.00
2023-05-02T05:47:09.686Z,95919.00
2023-05-02T05:52:37.909Z,95926.00
2023-05-02T05:58:06.710Z,95937.00
2023-05-02T06:03:36.602Z,95933.00
2023-05-02T06:09:04.997Z,95937.00
2023-05-02T06:14:34.524Z,95952.00
2023-05-02T06:20:03.033Z,95952.00
2023-05-02T06:25:32.962Z,95959.00
2023-05-02T06:31:06.146Z,95959.00
2023-05-02T06:36:34.362Z,95961.00
2023-05-02T06:42:02.509Z,95972.00
2023-05-02T06:47:31.461Z,95980.00
2023-05-02T06:52:59.766Z,95974.00
2023-05-02T06:58:29.895Z,95993.00
2023-05-02T07:03:57.958Z,95996.00
2023-05-02T07:09:26.137Z,95996.00
2023-05-02T07:14:54.390Z,96006.00
2023-05-02T07:20:22.927Z,95995.00
2023-05-02T07:25:51.205Z,95993.00
2023-05-02T07:31:20.376Z,95995.00
2023-05-02T07:36:48.467Z,96002.00
2023-05-02T07:42:16.528Z,95998.00
2023-05-02T07:47:45.472Z,96011.00
2023-05-02T07:53:15.785Z,96000.00
2023-05-02T07:58:44.859Z,96006.00
2023-05-02T08:04:13.262Z,96017.00
2023-05-02T08:09:41.587Z,96012.00
2023-05-02T08:15:13.821Z,96028.00
2023-05-02T08:20:43.275Z,96027.00
2023-05-02T08:26:11.380Z,96030.00
2023-05-02T08:31:43.211Z,96035.00
2023-05-02T08:37:12.281Z,96025.00
2023-05-02T08:42:44.672Z,96040.00
2023-05-02T08:48:16.592Z,96039.00
2023-05-02T08:53:48.237Z,96045.00
2023-05-02T08:59:16.416Z,96049.00
2023-05-02T09:04:46.882Z,96056.00
2023-05-02T09:10:20.806Z,96051.00
2023-05-02T09:16:10.369Z,96064.00
2023-05-02T09:21:43.517Z,96064.00
2023-05-02T09:27:57.296Z,96065.00
2023-05-02T09:34:20.765Z,96068.00
2023-05-02T09:40:06.831Z,96069.00
2023-05-02T09:45:36.521Z,96071.00
2023-05-02T09:51:18.153Z,96071.00
2023-05-02T09:57:04.841Z,96073.00
2023-05-02T10:08:50.499Z,96076.00
2023-05-02T10:14:22.353Z,96078.00
2023-05-02T10:20:06.678Z,96077.00
2023-05-02T10:25:35.143Z,96078.00
2023-05-02T10:31:05.230Z,96079.00
2023-05-02T10:36:34.096Z,96075.00
2023-05-02T10:42:07.129Z,96074.00
2023-05-02T10:47:37.285Z,96067.00
2023-05-02T10:53:29.580Z,96070.00
2023-05-02T10:59:28.257Z,96065.00
2023-05-02T11:05:05.319Z,96066.00
2023-05-02T11:11:11.960Z,96064.00
2023-05-02T11:16:59.711Z,96068.00
2023-05-02T11:22:58.527Z,96072.00
2023-05-02T11:35:26.326Z,96090.00
2023-05-02T11:41:00.482Z,96097.00
2023-05-02T11:46:29.501Z,96108.00
2023-05-02T11:51:59.490Z,96102.00
2023-05-02T11:57:28.000Z,96115.00
2023-05-02T12:02:56.201Z,96114.00
2023-05-02T12:08:27.966Z,96110.00
2023-05-02T12:13:56.476Z,96100.00
2023-05-02T12:19:24.854Z,96098.00
2023-05-02T12:24:56.512Z,96093.00
2023-05-02T12:30:33.127Z,96102.00
2023-05-02T12:36:08.333Z,96103.00
2023-05-02T12:41:39.492Z,96108.00
2023-05-02T12:47:12.409Z,96105.00
2023-05-02T12:52:59.165Z,96107.00
2023-05-02T12:58:30.535Z,96103.00
2023-05-02T13:03:58.755Z,96115.00
2023-05-02T13:09:27.512Z,96117.00
2023-05-02T13:14:56.413Z,96108.00
2023-05-02T13:20:24.693Z,96110.00
2023-05-02T13:25:52.860Z,96110.00
2023-05-02T13:31:21.020Z,96106.00
2023-05-02T13:36:49.115Z,96103.00
2023-05-02T13:42:16.898Z,96105.00
2023-05-02T13:47:45.257Z,96112.00
2023-05-02T13:53:13.393Z,96113.00
2023-05-02T13:58:41.840Z,96123.00
2023-05-02T14:04:10.021Z,96127.00
2023-05-02T14:09:41.353Z,96140.00
2023-05-02T14:15:09.744Z,96169.00
2023-05-02T14:20:37.967Z,96172.00
2023-05-02T14:26:06.165Z,96178.00
2023-05-02T14:31:34.409Z,96172.00
2023-05-02T14:37:02.653Z,96171.00
2023-05-02T14:42:30.952Z,96164.00
2023-05-02T14:48:00.326Z,96161.00
2023-05-02T14:53:28.654Z,96159.00
2023-05-02T14:58:56.853Z,96147.00
2023-05-02T15:04:27.367Z,96155.00
2023-05-02T15:09:56.923Z,96140.00
2023-05-02T15:15:26.426Z,96137.00
2023-05-02T15:20:54.713Z,96116.00
2023-05-02T15:26:24.415Z,96116.00
2023-05-02T15:31:55.064Z,96126.00
2023-05-02T15:37:23.306Z,96124.00
2023-05-02T15:42:52.046Z,96122.00
2023-05-02T15:48:21.727Z,96127.00
2023-05-02T15:53:52.499Z,96125.00
2023-05-02T15:59:20.846Z,96133.00
2023-05-02T16:04:49.763Z,96129.00
2023-05-02T16:10:18.157Z,96135.00
2023-05-02T16:15:48.320Z,96136.00
2023-05-02T16:21:17.043Z,96141.00
2023-05-02T16:26:45.743Z,96151.00
2023-05-02T16:32:14.929Z,96176.00
2023-05-02T16:37:43.062Z,96178.00
2023-05-02T16:43:11.263Z,96202.00
2023-05-02T16:48:39.654Z,96237.00
2023-05-02T16:54:08.166Z,96235.00
2023-05-02T16:59:36.081Z,96233.00
2023-05-02T17:05:04.497Z,96235.00
2023-05-02T17:10:32.668Z,96258.00
2023-05-02T17:16:03.519Z,96249.00
2023-05-02T17:21:43.473Z,96249.00
2023-05-02T17:27:40.698Z,96258.00
2023-05-02T17:33:11.719Z,96253.00
2023-05-02T17:38:39.969Z,96240.00
2023-05-02T17:44:09.991Z,96243.00
2023-05-02T17:49:38.371Z,96255.00
2023-05-02T17:55:07.177Z,96250.00
2023-05-02T18:00:35.810Z,96258.00
2023-05-02T18:06:04.523Z,96260.00
2023-05-02T18:11:33.257Z,96258.00
2023-05-02T18:17:01.648Z,96258.00
2023-05-02T18:22:29.982Z,96262.00
2023-05-02T18:27:58.178Z,96259.00
2023-05-02T18:33:26.348Z,96273.00
2023-05-02T18:38:55.276Z,96279.00
2023-05-02T18:44:24.535Z,96281.00
2023-05-02T18:49:59.397Z,96290.00
2023-05-02T18:55:28.617Z,96302.00
2023-05-02T19:00:59.904Z,96304.00
2023-05-02T19:06:29.576Z,96306.00
2023-05-02T19:11:58.812Z,96312.00
2023-05-02T19:17:29.125Z,96311.00
2023-05-02T19:23:17.580Z,96310.00
2023-05-02T19:28:46.730Z,96311.00
2023-05-02T19:34:15.007Z,96318.00
2023-05-02T19:39:43.372Z,96316.00
2023-05-02T19:45:13.983Z,96335.00
2023-05-02T19:50:42.390Z,96336.00
2023-05-02T19:56:11.322Z,96338.00
2023-05-02T20:01:39.598Z,96341.00
2023-05-02T20:07:08.488Z,96332.00
2023-05-02T20:12:36.949Z,96347.00
2023-05-02T20:18:06.894Z,96349.00
2023-05-02T20:23:35.195Z,96348.00
2023-05-02T20:29:04.133Z,96360.00
2023-05-02T20:34:36.370Z,96362.00
2023-05-02T20:40:10.324Z,96355.00
2023-05-02T20:45:42.089Z,96353.00
2023-05-02T20:51:10.624Z,96355.00
2023-05-02T20:56:39.271Z,96357.00
2023-05-02T21:02:07.875Z,96347.00
2023-05-02T21:07:35.952Z,96350.00
2023-05-02T21:13:03.850Z,96347.00
2023-05-02T21:18:32.716Z,96350.00
2023-05-02T21:24:01.331Z,96343.00
2023-05-02T21:29:30.220Z,96350.00
2023-05-02T21:34:59.300Z,96346.00
2023-05-02T21:40:29.482Z,96344.00
2023-05-02T21:45:58.442Z,96342.00
2023-05-02T21:51:27.320Z,96343.00
2023-05-02T21:56:55.205Z,96335.00
2023-05-02T22:02:24.102Z,96333.00
2023-05-02T22:07:53.102Z,96332.00
2023-05-02T22:13:21.261Z,96337.00
2023-05-02T22:18:52.077Z,96328.00
2023-05-02T22:24:20.851Z,96339.00
2023-05-02T22:29:49.397Z,96334.00
2023-05-02T22:35:18.124Z,96342.00
2023-05-02T22:40:46.705Z,96353.00
2023-05-02T22:46:14.882Z,96343.00
2023-05-02T22:51:43.538Z,96340.00
2023-05-02T22:57:11.653Z,96348.00
2023-05-02T23:02:39.873Z,96339.00
2023-05-02T23:08:07.706Z,96347.00
2023-05-02T23:13:36.202Z,96348.00
2023-05-02T23:19:04.320Z,96344.00
2023-05-02T23:24:32.690Z,96333.00
2023-05-02T23:30:00.734Z,96329.00
2023-05-02T23:35:28.884Z,96340.00
2023-05-02T23:40:57.264Z,96322.00
2023-05-02T23:46:27.257Z,96333.00
2023-05-02T23:51:56.990Z,96330.00
2023-05-02T23:57:25.074Z,96323.00
